CHH7568 ZUCK-ZBAA
Flight info
| Callsign | CHH7568 |
|---|---|
| Flight time | N/A |
| Altitude | 37100 |
| Route | OVNUL W677 IGIRO W4 VADMO W56 LEBUN/K0846S1160 W56 NUDKU/K0848S1130 W56 DUGEB |
| Aircraft | B738/M-SDE2E3FGHIRWXY/LB1 |
Departure
| Time | 2026-04-25 08:29 |
|---|---|
| Airport | Chongqing Jiangbei International Airport (ZUCK) |
Arrival
| Time | N/A |
|---|---|
| Airport | Beijing Capital International Airport (ZBAA) |
| Time | Latitude | Longitude | Altitude | Speed | Heading |
|---|---|---|---|---|---|
| 2026-04-25 07:45 | 29.71699 | 106.64968 | 1373 ft | 0 kts | 101° |
| 2026-04-25 08:17 | 29.71700 | 106.64964 | 1373 ft | 2 kts | 101° |
| 2026-04-25 08:18 | 29.71703 | 106.64946 | 1373 ft | 2 kts | 101° |
| 2026-04-25 08:18 | 29.71705 | 106.64929 | 1373 ft | 2 kts | 101° |
| 2026-04-25 08:18 | 29.71710 | 106.64912 | 1373 ft | 2 kts | 122° |
| 2026-04-25 08:18 | 29.71719 | 106.64899 | 1373 ft | 2 kts | 140° |
| 2026-04-25 08:19 | 29.71732 | 106.64890 | 1373 ft | 2 kts | 161° |
| 2026-04-25 08:19 | 29.71747 | 106.64887 | 1373 ft | 2 kts | 182° |
| 2026-04-25 08:19 | 29.71757 | 106.64888 | 1373 ft | 0 kts | 195° |
| 2026-04-25 08:19 | 29.71763 | 106.64890 | 1373 ft | 0 kts | 197° |
| 2026-04-25 08:21 | 29.71762 | 106.64890 | 1373 ft | 0 kts | 197° |
| 2026-04-25 08:22 | 29.71740 | 106.64884 | 1373 ft | 4 kts | 191° |
| 2026-04-25 08:22 | 29.71700 | 106.64872 | 1373 ft | 6 kts | 207° |
| 2026-04-25 08:22 | 29.71678 | 106.64818 | 1372 ft | 9 kts | 257° |
| 2026-04-25 08:22 | 29.71609 | 106.64751 | 1372 ft | 11 kts | 198° |
| 2026-04-25 08:23 | 29.71553 | 106.64731 | 1372 ft | 13 kts | 197° |
| 2026-04-25 08:23 | 29.71457 | 106.64697 | 1372 ft | 15 kts | 197° |
| 2026-04-25 08:23 | 29.71381 | 106.64616 | 1372 ft | 16 kts | 252° |
| 2026-04-25 08:23 | 29.71278 | 106.64551 | 1372 ft | 18 kts | 197° |
| 2026-04-25 08:24 | 29.71148 | 106.64506 | 1372 ft | 20 kts | 197° |
| 2026-04-25 08:24 | 29.71014 | 106.64461 | 1372 ft | 20 kts | 195° |
| 2026-04-25 08:24 | 29.70876 | 106.64410 | 1371 ft | 21 kts | 198° |
| 2026-04-25 08:24 | 29.70765 | 106.64373 | 1371 ft | 13 kts | 197° |
| 2026-04-25 08:25 | 29.70686 | 106.64346 | 1371 ft | 10 kts | 196° |
| 2026-04-25 08:25 | 29.70624 | 106.64315 | 1371 ft | 10 kts | 228° |
| 2026-04-25 08:25 | 29.70624 | 106.64243 | 1371 ft | 6 kts | 286° |
| 2026-04-25 08:25 | 29.70626 | 106.64235 | 1371 ft | 0 kts | 286° |
| 2026-04-25 08:27 | 29.70627 | 106.64230 | 1371 ft | 2 kts | 286° |
| 2026-04-25 08:27 | 29.70635 | 106.64201 | 1371 ft | 5 kts | 287° |
| 2026-04-25 08:27 | 29.70653 | 106.64156 | 1371 ft | 7 kts | 309° |
| 2026-04-25 08:28 | 29.70705 | 106.64150 | 1371 ft | 4 kts | 13° |
| 2026-04-25 08:28 | 29.70708 | 106.64150 | 1371 ft | 5 kts | 13° |
| 2026-04-25 08:28 | 29.70994 | 106.64249 | 1371 ft | 79 kts | 17° |
| 2026-04-25 08:28 | 29.71750 | 106.64511 | 1372 ft | 143 kts | 17° |
| 2026-04-25 08:29 | 29.72871 | 106.64896 | 1498 ft | 182 kts | 18° |
| 2026-04-25 08:29 | 29.74047 | 106.65306 | 2278 ft | 178 kts | 18° |
| 2026-04-25 08:29 | 29.75255 | 106.65730 | 2888 ft | 187 kts | 19° |
| 2026-04-25 08:29 | 29.76512 | 106.66159 | 3641 ft | 188 kts | 18° |
| 2026-04-25 08:30 | 29.77769 | 106.66580 | 4320 ft | 193 kts | 18° |
| 2026-04-25 08:30 | 29.79067 | 106.67022 | 4980 ft | 199 kts | 18° |
| 2026-04-25 08:30 | 29.80447 | 106.67490 | 5498 ft | 214 kts | 19° |
| 2026-04-25 08:30 | 29.81932 | 106.68002 | 5956 ft | 232 kts | 19° |
| 2026-04-25 08:31 | 29.83588 | 106.68579 | 5943 ft | 256 kts | 19° |
| 2026-04-25 08:31 | 29.85321 | 106.69186 | 5928 ft | 259 kts | 18° |
| 2026-04-25 08:31 | 29.87066 | 106.69794 | 5921 ft | 263 kts | 18° |
| 2026-04-25 08:31 | 29.88925 | 106.70439 | 6148 ft | 289 kts | 18° |
| 2026-04-25 08:32 | 29.90825 | 106.71096 | 7198 ft | 288 kts | 18° |
| 2026-04-25 08:32 | 29.92767 | 106.71766 | 8136 ft | 292 kts | 18° |
| 2026-04-25 08:32 | 29.94718 | 106.72441 | 9045 ft | 296 kts | 18° |
| 2026-04-25 08:32 | 29.96699 | 106.73128 | 9935 ft | 300 kts | 17° |
| 2026-04-25 08:33 | 29.98716 | 106.73827 | 10720 ft | 308 kts | 17° |
| 2026-04-25 08:33 | 30.00818 | 106.74557 | 11290 ft | 323 kts | 16° |
| 2026-04-25 08:33 | 30.03039 | 106.75326 | 11852 ft | 337 kts | 16° |
| 2026-04-25 08:33 | 30.05330 | 106.76120 | 12345 ft | 353 kts | 15° |
| 2026-04-25 08:34 | 30.07773 | 106.76966 | 12796 ft | 369 kts | 15° |
| 2026-04-25 08:34 | 30.10298 | 106.77840 | 13236 ft | 384 kts | 15° |
| 2026-04-25 08:34 | 30.12939 | 106.78758 | 13800 ft | 395 kts | 15° |
| 2026-04-25 08:34 | 30.15583 | 106.79676 | 14559 ft | 399 kts | 15° |
| 2026-04-25 08:35 | 30.18258 | 106.80635 | 15356 ft | 403 kts | 17° |
| 2026-04-25 08:35 | 30.20900 | 106.81790 | 16224 ft | 405 kts | 21° |
| 2026-04-25 08:35 | 30.23467 | 106.83129 | 17057 ft | 406 kts | 24° |
| 2026-04-25 08:35 | 30.26020 | 106.84594 | 17768 ft | 411 kts | 25° |
| 2026-04-25 08:36 | 30.28557 | 106.86115 | 18525 ft | 414 kts | 25° |
| 2026-04-25 08:36 | 30.31136 | 106.87684 | 19200 ft | 418 kts | 25° |
| 2026-04-25 08:36 | 30.33717 | 106.89247 | 19927 ft | 421 kts | 25° |
| 2026-04-25 08:36 | 30.36334 | 106.90823 | 20645 ft | 423 kts | 25° |
| 2026-04-25 08:37 | 30.38967 | 106.92400 | 21320 ft | 426 kts | 24° |
| 2026-04-25 08:37 | 30.41617 | 106.93981 | 21971 ft | 429 kts | 24° |
| 2026-04-25 08:37 | 30.43568 | 106.95143 | 22477 ft | 431 kts | 24° |
| 2026-04-25 08:37 | 30.46289 | 106.96763 | 23142 ft | 434 kts | 24° |
| 2026-04-25 08:38 | 30.48971 | 106.98358 | 23749 ft | 437 kts | 24° |
| 2026-04-25 08:38 | 30.51689 | 106.99976 | 24326 ft | 441 kts | 24° |
| 2026-04-25 08:38 | 30.54440 | 107.01611 | 24891 ft | 445 kts | 24° |
| 2026-04-25 08:38 | 30.57208 | 107.03374 | 25402 ft | 451 kts | 27° |
| 2026-04-25 08:39 | 30.59864 | 107.05341 | 26023 ft | 454 kts | 30° |
| 2026-04-25 08:39 | 30.62468 | 107.07441 | 26566 ft | 458 kts | 31° |
| 2026-04-25 08:39 | 30.65079 | 107.09634 | 27112 ft | 461 kts | 31° |
| 2026-04-25 08:39 | 30.67654 | 107.11832 | 27816 ft | 459 kts | 32° |
| 2026-04-25 08:40 | 30.70227 | 107.14037 | 28678 ft | 454 kts | 31° |
| 2026-04-25 08:40 | 30.72759 | 107.16206 | 29489 ft | 449 kts | 31° |
| 2026-04-25 08:40 | 30.75276 | 107.18353 | 30145 ft | 447 kts | 30° |
| 2026-04-25 08:40 | 30.77791 | 107.20486 | 30714 ft | 446 kts | 30° |
| 2026-04-25 08:41 | 30.80291 | 107.22598 | 31283 ft | 445 kts | 30° |
| 2026-04-25 08:41 | 30.82806 | 107.24719 | 31859 ft | 444 kts | 30° |
| 2026-04-25 08:41 | 30.85269 | 107.26793 | 32490 ft | 440 kts | 30° |
| 2026-04-25 08:41 | 30.87760 | 107.28889 | 33080 ft | 438 kts | 29° |
| 2026-04-25 08:42 | 30.90240 | 107.30975 | 33600 ft | 437 kts | 29° |
| 2026-04-25 08:42 | 30.92733 | 107.33070 | 34125 ft | 435 kts | 29° |
| 2026-04-25 08:42 | 30.95177 | 107.35124 | 34592 ft | 434 kts | 28° |
| 2026-04-25 08:42 | 30.97658 | 107.37211 | 35053 ft | 433 kts | 28° |
| 2026-04-25 08:43 | 31.00130 | 107.39291 | 35533 ft | 432 kts | 28° |
| 2026-04-25 08:43 | 31.02592 | 107.41363 | 35989 ft | 431 kts | 28° |
| 2026-04-25 08:43 | 31.05074 | 107.43367 | 36397 ft | 427 kts | 25° |
| 2026-04-25 08:43 | 31.07593 | 107.45163 | 36768 ft | 424 kts | 22° |
| 2026-04-25 08:44 | 31.10131 | 107.46832 | 37037 ft | 424 kts | 21° |
| 2026-04-25 08:44 | 31.15439 | 107.50179 | 37031 ft | 421 kts | 21° |
| 2026-04-25 08:45 | 31.20625 | 107.53455 | 37038 ft | 418 kts | 21° |
| 2026-04-25 08:45 | 31.25765 | 107.56740 | 37040 ft | 420 kts | 22° |
| 2026-04-25 08:46 | 31.30932 | 107.60071 | 37048 ft | 419 kts | 22° |
| 2026-04-25 08:46 | 31.36089 | 107.63414 | 37061 ft | 418 kts | 21° |
| 2026-04-25 08:47 | 31.41210 | 107.66741 | 37076 ft | 418 kts | 22° |
| 2026-04-25 08:47 | 31.46343 | 107.70079 | 37089 ft | 418 kts | 22° |
| 2026-04-25 08:48 | 31.51434 | 107.73399 | 37108 ft | 418 kts | 22° |
| 2026-04-25 08:48 | 31.56522 | 107.76720 | 37113 ft | 417 kts | 22° |
| 2026-04-25 08:49 | 31.61616 | 107.80112 | 37105 ft | 417 kts | 25° |
| 2026-04-25 08:49 | 31.66407 | 107.84125 | 37100 ft | 424 kts | 31° |
| 2026-04-25 08:50 | 31.71000 | 107.88519 | 37090 ft | 424 kts | 32° |
| 2026-04-25 08:50 | 31.75562 | 107.92992 | 37073 ft | 424 kts | 32° |
| 2026-04-25 08:51 | 31.80082 | 107.97419 | 37072 ft | 421 kts | 32° |
| 2026-04-25 08:51 | 31.84610 | 108.01839 | 37079 ft | 421 kts | 32° |
| 2026-04-25 08:52 | 31.89144 | 108.06259 | 37103 ft | 421 kts | 32° |
| 2026-04-25 08:52 | 31.93670 | 108.10668 | 37129 ft | 422 kts | 32° |
| 2026-04-25 08:53 | 31.98210 | 108.15095 | 37137 ft | 423 kts | 32° |
| 2026-04-25 08:53 | 32.02752 | 108.19534 | 37160 ft | 419 kts | 32° |
| 2026-04-25 08:54 | 32.07158 | 108.24033 | 37167 ft | 425 kts | 38° |
| 2026-04-25 08:54 | 32.09117 | 108.26765 | 37154 ft | 436 kts | 47° |
| 2026-04-25 08:54 | 32.10646 | 108.29902 | 37167 ft | 448 kts | 57° |
| 2026-04-25 08:55 | 32.12963 | 108.36865 | 37171 ft | 454 kts | 63° |
| 2026-04-25 08:55 | 32.14964 | 108.43957 | 37210 ft | 454 kts | 63° |
| 2026-04-25 08:56 | 32.16926 | 108.51062 | 37232 ft | 454 kts | 63° |
| 2026-04-25 08:56 | 32.18911 | 108.58165 | 37244 ft | 456 kts | 63° |
| 2026-04-25 08:57 | 32.21035 | 108.65169 | 37248 ft | 446 kts | 58° |
| 2026-04-25 08:57 | 32.22540 | 108.68359 | 37247 ft | 436 kts | 46° |
| 2026-04-25 08:57 | 32.24502 | 108.71012 | 37246 ft | 424 kts | 35° |
| 2026-04-25 08:58 | 32.29194 | 108.75127 | 37210 ft | 413 kts | 26° |
| 2026-04-25 08:58 | 32.34111 | 108.78681 | 37177 ft | 410 kts | 24° |
| 2026-04-25 08:59 | 32.39025 | 108.82134 | 37149 ft | 412 kts | 24° |
| 2026-04-25 08:59 | 32.43977 | 108.85639 | 37127 ft | 410 kts | 24° |
| 2026-04-25 09:00 | 32.48900 | 108.89159 | 37093 ft | 409 kts | 25° |
| 2026-04-25 09:00 | 32.53824 | 108.92694 | 37091 ft | 411 kts | 25° |
| 2026-04-25 09:01 | 32.58725 | 108.96220 | 37098 ft | 411 kts | 25° |
| 2026-04-25 09:01 | 32.63639 | 108.99768 | 37073 ft | 409 kts | 25° |
| 2026-04-25 09:02 | 32.68527 | 109.03298 | 37070 ft | 409 kts | 25° |
| 2026-04-25 09:02 | 32.73401 | 109.06821 | 37061 ft | 410 kts | 25° |
| 2026-04-25 09:03 | 32.78328 | 109.10389 | 37077 ft | 411 kts | 25° |
| 2026-04-25 09:03 | 32.83199 | 109.13921 | 37102 ft | 410 kts | 25° |
| 2026-04-25 09:04 | 32.88137 | 109.17507 | 37119 ft | 410 kts | 25° |
| 2026-04-25 09:04 | 32.93037 | 109.21069 | 37128 ft | 411 kts | 25° |
| 2026-04-25 09:05 | 32.97961 | 109.24652 | 37134 ft | 410 kts | 25° |
| 2026-04-25 09:05 | 33.02843 | 109.28213 | 37144 ft | 410 kts | 25° |
| 2026-04-25 09:06 | 33.07732 | 109.31782 | 37154 ft | 409 kts | 25° |
| 2026-04-25 09:06 | 33.12644 | 109.35371 | 37159 ft | 410 kts | 25° |
| 2026-04-25 09:07 | 33.17530 | 109.38950 | 37161 ft | 409 kts | 25° |
| 2026-04-25 09:07 | 33.22362 | 109.42493 | 37165 ft | 409 kts | 25° |
| 2026-04-25 09:08 | 33.27238 | 109.46074 | 37168 ft | 409 kts | 25° |
| 2026-04-25 09:08 | 33.32103 | 109.49648 | 37153 ft | 409 kts | 25° |
| 2026-04-25 09:09 | 33.36770 | 109.53706 | 37133 ft | 420 kts | 36° |
| 2026-04-25 09:09 | 33.40319 | 109.59451 | 37123 ft | 438 kts | 54° |
| 2026-04-25 09:10 | 33.42484 | 109.66462 | 37111 ft | 458 kts | 70° |
| 2026-04-25 09:10 | 33.43480 | 109.74157 | 37104 ft | 466 kts | 75° |
| 2026-04-25 09:11 | 33.44455 | 109.85738 | 37097 ft | 465 kts | 76° |
| 2026-04-25 09:11 | 33.45108 | 109.93429 | 37094 ft | 463 kts | 76° |
| 2026-04-25 09:12 | 33.45802 | 110.01140 | 37088 ft | 463 kts | 75° |
| 2026-04-25 09:12 | 33.46514 | 110.08850 | 37092 ft | 464 kts | 75° |
| 2026-04-25 09:13 | 33.47233 | 110.16544 | 37094 ft | 463 kts | 75° |
| 2026-04-25 09:13 | 33.47948 | 110.24213 | 37089 ft | 462 kts | 75° |
| 2026-04-25 09:14 | 33.48660 | 110.31885 | 37082 ft | 461 kts | 75° |
| 2026-04-25 09:14 | 33.49496 | 110.39497 | 37077 ft | 456 kts | 69° |
| 2026-04-25 09:15 | 33.50353 | 110.43089 | 37066 ft | 442 kts | 59° |
| 2026-04-25 09:15 | 33.51757 | 110.46361 | 37073 ft | 431 kts | 48° |
| 2026-04-25 09:15 | 33.55569 | 110.51765 | 37072 ft | 415 kts | 36° |
| 2026-04-25 09:16 | 33.60177 | 110.55698 | 37089 ft | 405 kts | 21° |
| 2026-04-25 09:16 | 33.65221 | 110.58634 | 37097 ft | 399 kts | 18° |
| 2026-04-25 09:17 | 33.72859 | 110.62792 | 37124 ft | 401 kts | 19° |
| 2026-04-25 09:18 | 33.77932 | 110.65644 | 37127 ft | 401 kts | 19° |
| 2026-04-25 09:18 | 33.83034 | 110.68557 | 37117 ft | 400 kts | 20° |
| 2026-04-25 09:19 | 33.88091 | 110.71465 | 37110 ft | 402 kts | 20° |
| 2026-04-25 09:19 | 33.93158 | 110.74384 | 37098 ft | 400 kts | 19° |
| 2026-04-25 09:20 | 33.98199 | 110.77292 | 37082 ft | 400 kts | 20° |